Terminal Aerodrome Forecast
Issued by NWS Sioux Falls, SD

Home | Current Version | Previous Version | Graphics & Text | Print | Product List | Glossary On
Versions: 1 2 3 4 5 6 7 8 9 10 11 12 13 14 15 16 17 18 19 20 21 22 23 24 25 26 27 28
000
FTUS43 KFSD 290427 AAC
TAFFSD
TAF AMD
KFSD 290427Z 2904/2924 15006KT 5SM BR SCT010 BKN080
      TEMPO 2904/2907 BKN010
     FM290700 15006KT 4SM BR BKN006
     FM291000 15005KT 2SM BR OVC005
     FM291500 VRB05KT 4SM BR OVC009
     FM291800 25006KT P6SM BKN035=

USA.gov is the U.S. government's official web portal to all federal, state and local government web resources and services.